createdAt,value
2018-12-15T00:01:58.827Z,163.83
2018-12-15T00:04:39.371Z,168.57
2018-12-15T00:07:20.724Z,173.07
2018-12-15T00:10:01.283Z,223.63
2018-12-15T00:12:42.608Z,214.87
2018-12-15T00:15:24.188Z,200.90
2018-12-15T00:18:04.864Z,198.63
2018-12-15T00:20:45.655Z,180.93
2018-12-15T00:23:26.812Z,184.43
2018-12-15T00:26:07.343Z,217.03
2018-12-15T00:28:48.355Z,210.50
2018-12-15T00:31:28.959Z,195.93
2018-12-15T00:34:09.781Z,191.80
2018-12-15T00:36:50.671Z,184.93
2018-12-15T00:39:31.637Z,193.50
2018-12-15T00:42:12.804Z,193.20
2018-12-15T00:44:53.395Z,191.63
2018-12-15T00:47:34.712Z,200.57
2018-12-15T00:50:15.999Z,191.23
2018-12-15T00:52:57.263Z,186.93
2018-12-15T00:55:38.243Z,190.07
2018-12-15T00:58:19.510Z,187.40
2018-12-15T01:00:59.998Z,208.97
2018-12-15T01:03:41.523Z,186.40
2018-12-15T01:06:22.206Z,181.33
2018-12-15T01:09:03.468Z,191.10
2018-12-15T01:11:44.774Z,178.77
2018-12-15T01:14:25.920Z,177.80
2018-12-15T01:17:07.538Z,185.07
2018-12-15T01:19:48.481Z,179.03
2018-12-15T01:22:29.118Z,195.67
2018-12-15T01:25:10.392Z,205.07
2018-12-15T01:27:51.425Z,185.83
2018-12-15T01:30:31.910Z,187.50
2018-12-15T01:33:12.884Z,178.67
2018-12-15T01:35:53.527Z,186.23
2018-12-15T01:38:34.561Z,187.87
2018-12-15T01:41:15.587Z,298.63
2018-12-15T01:43:56.480Z,217.23
2018-12-15T01:46:37.528Z,191.80
2018-12-15T01:49:18.413Z,189.57
2018-12-15T01:51:59.460Z,185.43
2018-12-15T01:54:40.118Z,197.97
2018-12-15T01:57:20.958Z,177.40
2018-12-15T02:00:01.966Z,176.13
2018-12-15T02:02:42.524Z,178.57
2018-12-15T02:05:23.608Z,181.80
2018-12-15T02:08:04.593Z,177.70
2018-12-15T02:10:45.336Z,184.90
2018-12-15T02:13:26.128Z,189.03
2018-12-15T02:16:07.085Z,189.13
2018-12-15T02:18:47.761Z,208.13
2018-12-15T02:21:28.267Z,204.07
2018-12-15T02:24:09.388Z,184.50
2018-12-15T02:26:49.940Z,184.00
2018-12-15T02:29:30.259Z,177.50
2018-12-15T02:32:11.293Z,169.60
2018-12-15T02:34:51.966Z,177.03
2018-12-15T02:37:33.560Z,159.23
2018-12-15T02:40:14.079Z,168.40
2018-12-15T02:42:54.877Z,166.80
2018-12-15T02:45:36.648Z,161.77
2018-12-15T02:48:18.875Z,172.27
2018-12-15T02:50:59.963Z,166.10
2018-12-15T02:53:42.109Z,168.80
2018-12-15T02:56:23.393Z,162.13
2018-12-15T02:59:06.416Z,154.33
2018-12-15T03:01:47.654Z,166.53
2018-12-15T03:04:28.909Z,157.93
2018-12-15T03:07:09.928Z,160.30
2018-12-15T03:09:50.768Z,164.83
2018-12-15T03:12:31.570Z,167.40
2018-12-15T03:15:12.708Z,163.57
2018-12-15T03:17:53.949Z,187.47
2018-12-15T03:20:35.224Z,168.40
2018-12-15T03:23:15.942Z,158.43
2018-12-15T03:25:56.306Z,159.63
2018-12-15T03:28:37.444Z,158.30
2018-12-15T03:31:18.094Z,156.37
2018-12-15T03:33:59.373Z,153.67
2018-12-15T03:36:40.017Z,163.50
2018-12-15T03:39:21.063Z,148.73
2018-12-15T03:42:01.921Z,142.30
2018-12-15T03:44:42.559Z,145.43
2018-12-15T03:47:23.548Z,144.00
2018-12-15T03:50:04.178Z,137.90
2018-12-15T03:52:45.231Z,155.80
2018-12-15T04:03:39.887Z,179.03
2018-12-15T04:06:20.577Z,141.07
2018-12-15T04:09:01.454Z,357.57
2018-12-15T04:11:42.491Z,155.60
2018-12-15T04:14:23.781Z,164.23
2018-12-15T04:17:04.992Z,150.63
2018-12-15T04:19:45.733Z,138.53
2018-12-15T04:22:26.597Z,142.57
2018-12-15T04:25:07.866Z,152.63
2018-12-15T04:27:48.552Z,145.37
2018-12-15T04:30:29.133Z,134.73
2018-12-15T04:33:10.189Z,131.37
2018-12-15T04:52:05.434Z,142.60
2018-12-15T04:54:46.459Z,135.23
2018-12-15T04:57:27.703Z,137.90
2018-12-15T05:00:09.013Z,145.83
2018-12-15T05:02:50.244Z,138.13
2018-12-15T05:05:30.648Z,133.70
2018-12-15T05:08:11.648Z,142.37
2018-12-15T05:10:52.800Z,163.40
2018-12-15T05:13:34.182Z,161.40
2018-12-15T05:16:15.145Z,136.83
2018-12-15T05:18:55.736Z,134.97
2018-12-15T05:21:36.607Z,132.73
2018-12-15T05:24:17.955Z,133.10
2018-12-15T05:26:59.225Z,138.00
2018-12-15T05:29:40.505Z,151.20
2018-12-15T05:32:21.774Z,152.33
2018-12-15T05:35:03.057Z,142.57
2018-12-15T05:37:43.997Z,146.33
2018-12-15T05:40:24.767Z,145.13
2018-12-15T05:43:04.673Z,136.20
2018-12-15T05:45:45.684Z,122.20
2018-12-15T05:48:26.882Z,154.03
2018-12-15T05:51:07.840Z,141.27
2018-12-15T05:53:48.582Z,140.57
2018-12-15T05:56:29.223Z,128.60
2018-12-15T05:59:10.227Z,140.37
2018-12-15T06:01:51.077Z,135.60
2018-12-15T06:04:31.699Z,122.27
2018-12-15T06:07:12.993Z,168.97
2018-12-15T06:09:53.710Z,131.27
2018-12-15T06:12:34.582Z,120.30
2018-12-15T06:15:15.153Z,122.20
2018-12-15T06:17:56.628Z,118.90
2018-12-15T06:20:36.958Z,124.60
2018-12-15T06:23:17.765Z,122.27
2018-12-15T06:25:58.229Z,282.80
2018-12-15T06:28:38.552Z,112.53
2018-12-15T06:31:19.114Z,125.03
2018-12-15T06:33:59.514Z,127.33
2018-12-15T06:36:39.664Z,112.83
2018-12-15T06:39:19.668Z,100.20
2018-12-15T06:42:00.028Z,109.87
2018-12-15T06:44:40.574Z,116.50
2018-12-15T06:47:20.993Z,104.27
2018-12-15T06:50:01.879Z,111.13
2018-12-15T06:52:42.326Z,102.50
2018-12-15T06:55:23.103Z,100.97
2018-12-15T06:58:03.980Z,99.47
2018-12-15T07:00:44.111Z,98.43
2018-12-15T07:03:24.803Z,99.97
2018-12-15T07:06:05.043Z,87.40
2018-12-15T07:08:45.815Z,101.10
2018-12-15T07:11:26.479Z,84.87
2018-12-15T07:14:06.630Z,88.17
2018-12-15T07:16:47.099Z,85.53
2018-12-15T07:19:28.104Z,92.30
2018-12-15T07:22:08.731Z,84.60
2018-12-15T07:24:49.391Z,84.47
2018-12-15T07:27:29.624Z,84.90
2018-12-15T07:30:09.915Z,114.60
2018-12-15T07:32:50.487Z,98.37
2018-12-15T07:35:30.734Z,90.30
2018-12-15T07:38:11.083Z,85.70
2018-12-15T07:40:51.428Z,86.50
2018-12-15T07:43:31.912Z,100.87
2018-12-15T07:46:12.384Z,86.70
2018-12-15T07:48:52.953Z,93.07
2018-12-15T07:51:34.034Z,84.83
2018-12-15T07:54:14.231Z,88.83
2018-12-15T07:56:54.549Z,75.97
2018-12-15T07:59:34.820Z,74.63
2018-12-15T08:02:15.234Z,76.67
2018-12-15T08:04:55.467Z,74.13
2018-12-15T08:07:36.937Z,75.33
2018-12-15T08:10:17.667Z,78.70
2018-12-15T08:12:58.011Z,75.23
2018-12-15T08:15:38.372Z,69.67
2018-12-15T08:18:19.227Z,68.20
2018-12-15T08:20:59.391Z,75.63
2018-12-15T08:23:39.878Z,70.43
2018-12-15T08:29:05.141Z,71.30
2018-12-15T08:31:45.754Z,64.63
2018-12-15T08:34:26.106Z,65.23
2018-12-15T08:37:06.535Z,71.97
2018-12-15T08:39:47.670Z,146.87
2018-12-15T08:42:28.332Z,62.87
2018-12-15T08:45:09.200Z,61.53
2018-12-15T08:47:49.540Z,63.30
2018-12-15T08:50:29.801Z,67.23
2018-12-15T08:53:10.775Z,68.40
2018-12-15T08:55:51.710Z,60.83
2018-12-15T08:58:32.014Z,57.30
2018-12-15T09:01:12.468Z,60.33
2018-12-15T09:03:53.040Z,62.17
2018-12-15T09:06:33.398Z,63.87
2018-12-15T09:09:14.167Z,70.50
2018-12-15T09:11:54.544Z,64.10
2018-12-15T09:14:34.677Z,63.67
2018-12-15T09:17:15.252Z,62.37
2018-12-15T09:19:56.201Z,63.13
2018-12-15T09:22:37.216Z,60.23
2018-12-15T09:25:17.421Z,57.23
2018-12-15T09:27:57.699Z,55.20
2018-12-15T09:30:37.856Z,58.03
2018-12-15T09:33:18.081Z,57.90
2018-12-15T09:35:58.494Z,61.63
2018-12-15T09:38:39.215Z,55.13
2018-12-15T09:41:19.701Z,53.47
2018-12-15T09:44:00.072Z,55.07
2018-12-15T09:46:40.992Z,58.53
2018-12-15T09:49:21.718Z,83.10
2018-12-15T09:52:02.074Z,68.47
2018-12-15T09:54:41.991Z,63.60
2018-12-15T09:57:22.616Z,52.53
2018-12-15T10:00:02.950Z,54.67
2018-12-15T10:02:43.024Z,49.80
2018-12-15T10:05:24.707Z,49.87
2018-12-15T10:08:04.736Z,52.17
2018-12-15T10:10:45.716Z,48.00
2018-12-15T10:16:12.225Z,53.20
2018-12-15T10:18:53.625Z,57.53
2018-12-15T10:21:33.917Z,66.90
2018-12-15T10:24:14.493Z,67.40
2018-12-15T10:26:54.381Z,55.63
2018-12-15T10:29:34.659Z,51.47
2018-12-15T10:32:14.828Z,60.30
2018-12-15T10:34:54.658Z,52.97
2018-12-15T10:37:34.695Z,54.57
2018-12-15T10:40:15.401Z,51.93
2018-12-15T10:42:55.760Z,55.33
2018-12-15T10:45:36.089Z,58.00
2018-12-15T10:48:16.654Z,65.70
2018-12-15T10:50:57.665Z,71.20
2018-12-15T10:53:37.830Z,63.60
2018-12-15T10:56:17.973Z,57.27
2018-12-15T10:58:57.941Z,57.83
2018-12-15T11:01:39.303Z,68.17
2018-12-15T11:04:19.413Z,85.13
2018-12-15T11:06:59.470Z,58.90
2018-12-15T11:09:40.189Z,68.30
2018-12-15T11:12:20.146Z,63.67
2018-12-15T11:15:00.470Z,63.13
2018-12-15T11:17:40.645Z,58.83
2018-12-15T11:20:21.016Z,68.87
2018-12-15T11:23:01.188Z,57.57
2018-12-15T11:25:42.155Z,69.03
2018-12-15T11:28:22.787Z,72.53
2018-12-15T11:31:02.627Z,61.77
2018-12-15T11:33:42.826Z,61.83
2018-12-15T11:36:23.239Z,69.50
2018-12-15T11:39:03.672Z,95.93
2018-12-15T11:41:44.621Z,89.63
2018-12-15T11:44:24.592Z,78.90
2018-12-15T11:47:04.398Z,92.40
2018-12-15T11:49:45.085Z,88.60
2018-12-15T11:52:27.715Z,80.73
2018-12-15T11:57:58.630Z,74.27
2018-12-15T12:00:39.139Z,68.73
2018-12-15T12:03:19.128Z,70.33
2018-12-15T12:05:59.588Z,80.77
2018-12-15T12:08:40.759Z,75.40
2018-12-15T12:11:21.949Z,84.17
2018-12-15T12:14:01.752Z,73.90
2018-12-15T12:16:42.012Z,418.20
2018-12-15T12:19:22.597Z,295.83
2018-12-15T12:22:02.759Z,103.90
2018-12-15T12:24:42.831Z,68.93
2018-12-15T12:27:23.713Z,73.47
2018-12-15T12:30:03.990Z,85.50
2018-12-15T12:32:44.190Z,143.47
2018-12-15T12:35:25.302Z,98.07
2018-12-15T12:38:05.512Z,80.60
2018-12-15T12:40:46.124Z,94.60
2018-12-15T12:43:26.500Z,106.93
2018-12-15T12:46:06.474Z,99.50
2018-12-15T12:48:46.751Z,89.57
2018-12-15T12:51:26.938Z,102.43
2018-12-15T12:54:07.494Z,98.40
2018-12-15T12:56:47.792Z,110.57
2018-12-15T12:59:28.984Z,161.83
2018-12-15T13:02:10.143Z,152.07
2018-12-15T13:04:50.778Z,136.23
2018-12-15T13:07:31.028Z,144.73
2018-12-15T13:10:11.561Z,254.97
2018-12-15T13:12:52.147Z,208.63
2018-12-15T13:15:32.298Z,170.53
2018-12-15T13:18:12.877Z,175.77
2018-12-15T13:20:52.901Z,174.50
2018-12-15T13:23:33.412Z,157.87
2018-12-15T13:26:14.031Z,161.17
2018-12-15T13:28:54.538Z,153.57
2018-12-15T13:31:34.544Z,155.07
2018-12-15T13:34:14.669Z,153.37
2018-12-15T13:36:54.979Z,161.33
2018-12-15T13:39:35.366Z,160.07
2018-12-15T13:42:15.816Z,155.03
2018-12-15T13:44:57.303Z,154.63
2018-12-15T13:47:43.880Z,133.27
2018-12-15T13:50:24.577Z,110.37
2018-12-15T13:53:05.974Z,135.50
2018-12-15T13:55:47.238Z,128.37
2018-12-15T13:58:28.508Z,133.37
2018-12-15T14:01:10.430Z,141.93
2018-12-15T14:12:20.067Z,131.67
2018-12-15T14:15:15.819Z,118.70
2018-12-15T14:20:44.674Z,118.20
2018-12-15T14:23:29.470Z,118.27
2018-12-15T14:26:12.471Z,151.83
2018-12-15T14:31:45.961Z,131.37
2018-12-15T14:34:26.708Z,147.43
2018-12-15T14:37:07.517Z,151.47
2018-12-15T14:39:47.904Z,242.30
2018-12-15T14:42:28.352Z,183.27
2018-12-15T14:45:08.627Z,173.40
2018-12-15T14:47:49.146Z,161.53
2018-12-15T14:50:30.396Z,156.17
2018-12-15T14:53:11.549Z,137.17
2018-12-15T14:55:52.426Z,132.73
2018-12-15T14:58:32.267Z,144.93
2018-12-15T15:01:13.205Z,146.00
2018-12-15T15:03:52.998Z,147.97
2018-12-15T15:06:34.016Z,138.70
2018-12-15T15:09:13.987Z,133.97
2018-12-15T15:11:54.079Z,132.30
2018-12-15T15:14:35.236Z,140.50
2018-12-15T15:17:15.752Z,137.27
2018-12-15T15:19:56.901Z,133.47
2018-12-15T15:22:37.781Z,157.23
2018-12-15T15:25:18.764Z,173.13
2018-12-15T15:27:59.854Z,193.43
2018-12-15T15:30:41.016Z,150.87
2018-12-15T15:33:21.680Z,157.70
2018-12-15T15:36:02.660Z,155.27
2018-12-15T15:38:43.326Z,162.27
2018-12-15T15:41:24.494Z,166.33
2018-12-15T15:44:05.788Z,163.90
2018-12-15T15:46:46.791Z,146.63
2018-12-15T15:49:27.839Z,167.00
2018-12-15T15:52:09.138Z,168.23
2018-12-15T15:54:50.284Z,171.60
2018-12-15T15:57:30.781Z,152.17
2018-12-15T16:00:11.937Z,151.53
2018-12-15T16:05:36.034Z,160.97
2018-12-15T16:08:16.997Z,168.60
2018-12-15T16:10:57.982Z,167.90
2018-12-15T16:13:39.189Z,160.27
2018-12-15T16:16:20.472Z,155.00
2018-12-15T16:19:01.215Z,149.50
2018-12-15T16:21:42.691Z,191.17
2018-12-15T16:24:23.156Z,167.20
2018-12-15T16:27:07.226Z,149.43
2018-12-15T16:29:48.578Z,145.80
2018-12-15T16:32:29.591Z,152.40
2018-12-15T16:35:10.837Z,154.93
2018-12-15T16:37:51.406Z,147.97
2018-12-15T16:40:32.324Z,141.87
2018-12-15T16:43:13.597Z,147.90
2018-12-15T16:45:54.633Z,154.17
2018-12-15T16:48:35.867Z,151.23
2018-12-15T16:51:16.890Z,152.37
2018-12-15T16:53:58.116Z,144.03
2018-12-15T16:56:39.693Z,148.60
2018-12-15T16:59:20.335Z,155.70
2018-12-15T17:02:01.163Z,151.53
2018-12-15T17:04:42.352Z,159.33
2018-12-15T17:07:23.137Z,155.83
2018-12-15T17:10:03.691Z,157.73
2018-12-15T17:12:44.876Z,161.87
2018-12-15T17:15:26.393Z,154.73
2018-12-15T17:18:07.362Z,157.30
2018-12-15T17:20:48.730Z,185.37
2018-12-15T17:23:29.699Z,145.80
2018-12-15T17:26:10.555Z,141.70
2018-12-15T17:28:51.537Z,144.03
2018-12-15T17:31:32.203Z,145.07
2018-12-15T17:34:13.442Z,148.20
2018-12-15T17:36:54.723Z,144.33
2018-12-15T17:39:35.324Z,152.90
2018-12-15T17:42:16.674Z,157.03
2018-12-15T17:44:58.045Z,144.13
2018-12-15T17:47:38.952Z,156.60
2018-12-15T17:50:19.941Z,162.33
2018-12-15T17:53:00.825Z,159.30
2018-12-15T17:55:41.891Z,157.93
2018-12-15T17:58:23.466Z,155.27
2018-12-15T18:01:04.153Z,152.43
2018-12-15T18:03:45.224Z,161.20
2018-12-15T18:06:26.289Z,156.10
2018-12-15T18:09:07.265Z,153.43
2018-12-15T18:22:57.343Z,159.87
2018-12-15T18:25:38.580Z,152.67
2018-12-15T18:28:19.252Z,153.07
2018-12-15T18:31:00.715Z,148.33
2018-12-15T18:33:42.092Z,154.40
2018-12-15T18:36:22.782Z,153.23
2018-12-15T18:39:03.448Z,154.23
2018-12-15T18:41:44.335Z,151.80
2018-12-15T18:44:25.278Z,145.40
2018-12-15T18:47:06.563Z,149.10
2018-12-15T18:49:47.353Z,147.00
2018-12-15T18:52:28.802Z,146.83
2018-12-15T18:55:09.748Z,147.77
2018-12-15T18:57:50.784Z,145.30
2018-12-15T19:00:31.703Z,144.07
2018-12-15T19:03:12.991Z,154.80
2018-12-15T19:05:53.394Z,157.60
2018-12-15T19:08:34.368Z,158.07
2018-12-15T19:11:15.656Z,157.73
2018-12-15T19:13:56.496Z,152.70
2018-12-15T19:16:37.496Z,155.20
2018-12-15T19:19:18.410Z,154.37
2018-12-15T19:21:59.990Z,160.90
2018-12-15T19:24:41.274Z,152.13
2018-12-15T19:27:22.583Z,153.30
2018-12-15T19:30:03.291Z,157.97
2018-12-15T19:32:44.181Z,146.80
2018-12-15T19:35:25.129Z,149.60
2018-12-15T19:38:05.761Z,135.13
2018-12-15T19:40:46.711Z,136.73
2018-12-15T19:43:27.990Z,130.10
2018-12-15T19:46:09.131Z,134.87
2018-12-15T19:48:50.231Z,125.60
2018-12-15T19:51:31.271Z,129.77
2018-12-15T19:54:12.550Z,129.97
2018-12-15T19:56:53.445Z,123.53
2018-12-15T19:59:34.202Z,125.67
2018-12-15T20:02:15.355Z,115.50
2018-12-15T20:04:56.320Z,112.20
2018-12-15T20:07:39.952Z,111.13
2018-12-15T20:10:20.816Z,109.97
2018-12-15T20:13:01.938Z,106.00
2018-12-15T20:15:43.192Z,121.73
2018-12-15T20:18:24.636Z,114.10
2018-12-15T20:21:05.940Z,115.03
2018-12-15T20:23:47.198Z,105.30
2018-12-15T20:26:27.712Z,103.47
2018-12-15T20:29:08.797Z,107.10
2018-12-15T20:31:49.773Z,107.33
2018-12-15T20:34:30.703Z,103.97
2018-12-15T20:37:11.688Z,105.97
2018-12-15T20:39:52.707Z,109.27
2018-12-15T20:42:34.259Z,109.27
2018-12-15T20:45:15.191Z,106.33
2018-12-15T20:47:56.540Z,102.53
2018-12-15T20:50:37.124Z,97.30
2018-12-15T20:53:17.868Z,90.10
2018-12-15T20:55:58.857Z,86.50
2018-12-15T20:58:40.002Z,83.67
2018-12-15T21:01:20.995Z,86.90
2018-12-15T21:04:02.276Z,82.30
2018-12-15T21:06:43.535Z,76.57
2018-12-15T21:09:24.475Z,79.37
2018-12-15T21:12:05.762Z,71.50
2018-12-15T21:14:46.405Z,73.90
2018-12-15T21:17:27.367Z,78.10
2018-12-15T21:20:08.713Z,75.50
2018-12-15T21:22:50.259Z,76.10
2018-12-15T21:25:30.997Z,67.60
2018-12-15T21:28:11.862Z,66.03
2018-12-15T21:30:52.832Z,74.63
2018-12-15T21:33:33.773Z,69.90
2018-12-15T21:36:15.079Z,76.17
2018-12-15T21:38:55.743Z,66.10
2018-12-15T21:41:36.638Z,63.43
2018-12-15T21:44:17.707Z,64.00
2018-12-15T21:46:58.601Z,70.83
2018-12-15T21:49:39.680Z,70.27
2018-12-15T21:52:20.854Z,69.27
2018-12-15T21:55:01.790Z,73.70
2018-12-15T21:57:43.079Z,66.73
2018-12-15T22:00:23.841Z,65.33
2018-12-15T22:03:04.734Z,67.63
2018-12-15T22:05:45.606Z,74.73
2018-12-15T22:08:26.562Z,75.10
2018-12-15T22:11:07.237Z,67.27
2018-12-15T22:13:47.655Z,74.67
2018-12-15T22:16:28.789Z,69.30
2018-12-15T22:19:09.843Z,74.93
2018-12-15T22:21:50.725Z,75.93
2018-12-15T22:24:31.678Z,73.60
2018-12-15T22:27:12.672Z,69.23
2018-12-15T22:29:53.641Z,73.53
2018-12-15T22:32:34.558Z,75.20
2018-12-15T22:35:15.866Z,76.83
2018-12-15T22:37:56.813Z,78.63
2018-12-15T22:40:37.757Z,73.83
2018-12-15T22:43:18.415Z,75.30
2018-12-15T22:45:59.693Z,78.87
2018-12-15T22:48:40.808Z,71.03
2018-12-15T22:51:22.065Z,72.63
2018-12-15T22:54:03.525Z,77.27
2018-12-15T22:56:44.471Z,84.67
2018-12-15T22:59:25.378Z,78.30
2018-12-15T23:02:05.893Z,82.00
2018-12-15T23:04:47.112Z,80.80
2018-12-15T23:07:27.997Z,83.33
2018-12-15T23:10:08.750Z,91.87
2018-12-15T23:12:49.283Z,85.70
2018-12-15T23:15:29.992Z,75.73
2018-12-15T23:18:10.955Z,74.20
2018-12-15T23:20:51.525Z,84.07
2018-12-15T23:23:32.640Z,91.17
2018-12-15T23:26:14.221Z,94.93
2018-12-15T23:28:55.029Z,86.80
2018-12-15T23:31:36.023Z,88.67
2018-12-15T23:34:16.491Z,86.07
2018-12-15T23:36:57.392Z,90.43
2018-12-15T23:39:38.058Z,81.67
2018-12-15T23:42:18.690Z,88.10
2018-12-15T23:44:59.487Z,90.30
2018-12-15T23:47:40.144Z,91.00
2018-12-15T23:50:21.202Z,89.57
2018-12-15T23:53:01.460Z,90.93
2018-12-15T23:55:41.609Z,84.20
2018-12-15T23:58:22.690Z,94.90
